createdAt,value
2019-01-10T00:01:10.890Z,95143.60
2019-01-10T00:03:39.413Z,95146.63
2019-01-10T00:06:07.974Z,95147.36
2019-01-10T00:08:36.489Z,95149.36
2019-01-10T00:11:05.040Z,95149.82
2019-01-10T00:13:33.664Z,95139.74
2019-01-10T00:16:02.193Z,95152.58
2019-01-10T00:18:30.718Z,95150.60
2019-01-10T00:21:12.720Z,95149.77
2019-01-10T00:23:41.365Z,95152.75
2019-01-10T00:26:09.901Z,95155.69
2019-01-10T00:28:38.424Z,95160.20
2019-01-10T00:31:06.944Z,95159.44
2019-01-10T00:33:35.490Z,95153.49
2019-01-10T00:36:04.022Z,95163.69
2019-01-10T00:38:32.568Z,95160.33
2019-01-10T00:41:01.090Z,95168.37
2019-01-10T00:43:29.618Z,95167.61
2019-01-10T00:45:58.186Z,95172.97
2019-01-10T00:48:30.666Z,95172.59
2019-01-10T00:50:59.241Z,95173.45
2019-01-10T00:53:27.814Z,95175.73
2019-01-10T00:55:56.350Z,95179.30
2019-01-10T00:58:24.922Z,95179.58
2019-01-10T01:00:53.447Z,95182.51
2019-01-10T01:03:21.990Z,95188.64
2019-01-10T01:05:55.425Z,95199.17
2019-01-10T01:08:24.999Z,95199.27
2019-01-10T01:10:53.534Z,95204.36
2019-01-10T01:13:22.067Z,95202.45
2019-01-10T01:15:50.599Z,95209.13
2019-01-10T01:18:19.147Z,95209.30
2019-01-10T01:20:47.715Z,95214.57
2019-01-10T01:23:16.218Z,95213.87
2019-01-10T01:25:44.753Z,95215.79
2019-01-10T01:28:13.287Z,95217.33
2019-01-10T01:30:41.846Z,95213.91
2019-01-10T01:33:10.351Z,95215.80
2019-01-10T01:35:38.886Z,95218.99
2019-01-10T01:38:07.491Z,95219.62
2019-01-10T01:40:36.586Z,95220.47
2019-01-10T01:43:07.469Z,95219.55
2019-01-10T01:45:33.727Z,95225.28
2019-01-10T01:48:07.036Z,95228.00
2019-01-10T01:50:35.567Z,95225.52
2019-01-10T01:53:04.086Z,95229.11
2019-01-10T01:55:32.643Z,95227.75
2019-01-10T01:58:01.171Z,95226.81
2019-01-10T02:00:29.698Z,95231.06
2019-01-10T02:02:58.222Z,95233.91
2019-01-10T02:05:26.749Z,95235.38
2019-01-10T02:07:55.280Z,95239.03
2019-01-10T02:10:23.817Z,95236.39
2019-01-10T02:12:52.346Z,95237.36
2019-01-10T02:15:20.884Z,95240.48
2019-01-10T02:17:49.556Z,95239.05
2019-01-10T02:20:17.958Z,95244.44
2019-01-10T02:22:46.514Z,95239.43
2019-01-10T02:25:15.055Z,95244.78
2019-01-10T02:27:44.588Z,95245.95
2019-01-10T02:30:41.653Z,95247.50
2019-01-10T02:33:01.345Z,95243.22
2019-01-10T02:35:29.865Z,95244.23
2019-01-10T02:37:59.312Z,95246.20
2019-01-10T02:40:27.850Z,95245.34
2019-01-10T02:42:56.390Z,95244.45
2019-01-10T02:45:25.943Z,95244.20
2019-01-10T02:47:54.497Z,95243.58
2019-01-10T02:50:23.023Z,95248.38
2019-01-10T02:52:51.556Z,95247.20
2019-01-10T02:55:20.099Z,95247.28
2019-01-10T02:57:48.658Z,95246.41
2019-01-10T03:00:18.203Z,95242.56
2019-01-10T03:02:46.798Z,95245.80
2019-01-10T03:05:15.314Z,95241.93
2019-01-10T03:07:43.866Z,95244.19
2019-01-10T03:14:08.673Z,95246.09
2019-01-10T03:16:49.317Z,95241.89
2019-01-10T03:19:18.534Z,95242.00
2019-01-10T03:21:47.611Z,95240.07
2019-01-10T03:24:16.701Z,95239.34
2019-01-10T03:26:45.771Z,95238.13
2019-01-10T03:29:14.819Z,95238.59
2019-01-10T03:31:43.886Z,95241.45
2019-01-10T03:36:48.649Z,95240.74
2019-01-10T03:39:17.694Z,95241.75
2019-01-10T03:41:47.119Z,95237.70
2019-01-10T03:44:15.865Z,95237.59
2019-01-10T03:46:44.878Z,95243.25
2019-01-10T03:49:13.947Z,95245.11
2019-01-10T03:51:43.038Z,95241.66
2019-01-10T03:54:12.098Z,95241.86
2019-01-10T03:56:41.159Z,95250.08
2019-01-10T03:59:10.241Z,95246.30
2019-01-10T04:01:39.335Z,95240.48
2019-01-10T04:04:08.399Z,95245.94
2019-01-10T04:06:39.705Z,95252.73
2019-01-10T04:09:06.512Z,95248.04
2019-01-10T04:11:35.569Z,95247.20
2019-01-10T04:16:43.857Z,95252.27
2019-01-10T04:19:12.908Z,95254.58
2019-01-10T04:21:42.040Z,95249.91
2019-01-10T04:24:11.698Z,95253.88
2019-01-10T04:26:40.737Z,95253.97
2019-01-10T04:29:10.796Z,95253.65
2019-01-10T04:31:39.895Z,95257.83
2019-01-10T04:34:08.949Z,95256.54
2019-01-10T04:36:38.034Z,95253.45
2019-01-10T04:39:07.096Z,95261.02
2019-01-10T04:41:36.167Z,95266.45
2019-01-10T04:44:07.279Z,95273.00
2019-01-10T04:46:45.926Z,95269.22
2019-01-10T04:49:14.950Z,95272.53
2019-01-10T04:51:44.016Z,95270.59
2019-01-10T04:54:13.063Z,95274.69
2019-01-10T04:56:42.142Z,95277.90
2019-01-10T04:59:12.181Z,95276.90
2019-01-10T05:01:40.315Z,95278.25
2019-01-10T05:04:09.391Z,95285.66
2019-01-10T05:06:38.465Z,95282.63
2019-01-10T05:09:07.586Z,95291.45
2019-01-10T05:11:36.697Z,95285.98
2019-01-10T05:14:05.884Z,95293.59
2019-01-10T05:16:36.321Z,95294.92
2019-01-10T05:19:05.466Z,95290.52
2019-01-10T05:21:34.923Z,95299.42
2019-01-10T05:24:04.043Z,95297.39
2019-01-10T05:26:33.133Z,95294.75
2019-01-10T05:29:02.220Z,95299.33
2019-01-10T05:31:31.250Z,95296.98
2019-01-10T05:34:00.328Z,95301.81
2019-01-10T05:36:29.387Z,95306.11
2019-01-10T05:38:58.455Z,95301.92
2019-01-10T05:41:27.527Z,95302.54
2019-01-10T05:43:56.645Z,95307.45
2019-01-10T05:46:25.718Z,95313.83
2019-01-10T05:48:54.801Z,95318.75
2019-01-10T05:51:23.846Z,95318.73
2019-01-10T05:53:52.932Z,95317.11
2019-01-10T05:56:21.999Z,95322.50
2019-01-10T05:58:51.067Z,95322.50
2019-01-10T06:01:20.126Z,95327.22
2019-01-10T06:03:53.425Z,95328.19
2019-01-10T06:06:19.200Z,95333.52
2019-01-10T06:08:48.285Z,95337.56
2019-01-10T06:11:18.273Z,95340.40
2019-01-10T06:13:47.339Z,95345.23
2019-01-10T06:16:16.411Z,95347.76
2019-01-10T06:18:45.517Z,95348.41
2019-01-10T06:21:16.192Z,95346.92
2019-01-10T06:23:45.909Z,95353.19
2019-01-10T06:26:15.468Z,95355.56
2019-01-10T06:30:16.720Z,95362.08
2019-01-10T06:35:31.321Z,95365.33
2019-01-10T06:38:01.887Z,95375.16
2019-01-10T06:40:31.873Z,95369.19
2019-01-10T06:43:00.933Z,95371.16
2019-01-10T06:45:30.003Z,95379.73
2019-01-10T06:51:59.096Z,95385.12
2019-01-10T06:57:03.946Z,95386.43
2019-01-10T06:59:33.025Z,95388.19
2019-01-10T07:04:37.343Z,95396.11
2019-01-10T07:07:07.338Z,95396.73
2019-01-10T07:09:36.430Z,95400.90
2019-01-10T07:12:07.645Z,95396.00
2019-01-10T07:14:34.645Z,95400.42
2019-01-10T07:17:03.726Z,95397.75
2019-01-10T07:19:38.279Z,95400.89
2019-01-10T07:22:07.365Z,95404.13
2019-01-10T07:24:39.270Z,95414.03
2019-01-10T07:29:44.043Z,95415.49
2019-01-10T07:32:13.111Z,95418.59
2019-01-10T07:34:42.293Z,95415.09
2019-01-10T07:37:12.976Z,95417.41
2019-01-10T07:39:40.403Z,95426.39
2019-01-10T07:44:48.165Z,95423.34
2019-01-10T07:47:17.215Z,95423.62
2019-01-10T07:49:46.265Z,95430.78
2019-01-10T07:52:15.337Z,95427.69
2019-01-10T07:54:44.392Z,95434.56
2019-01-10T07:57:13.453Z,95436.44
2019-01-10T07:59:42.499Z,95435.81
2019-01-10T08:02:11.558Z,95440.38
2019-01-10T08:04:40.639Z,95444.88
2019-01-10T08:07:14.613Z,95449.45
2019-01-10T08:11:32.893Z,95458.33
2019-01-10T08:14:01.947Z,95466.30
2019-01-10T08:16:31.023Z,95466.22
2019-01-10T08:19:00.113Z,95461.92
2019-01-10T08:21:29.171Z,95472.16
2019-01-10T08:23:58.216Z,95475.43
2019-01-10T08:26:27.283Z,95469.30
2019-01-10T08:28:56.354Z,95471.17
2019-01-10T08:31:25.442Z,95469.11
2019-01-10T08:33:54.473Z,95478.91
2019-01-10T08:36:32.124Z,95481.80
2019-01-10T08:38:52.571Z,95483.05
2019-01-10T08:41:21.622Z,95489.34
2019-01-10T08:43:50.689Z,95482.77
2019-01-10T08:46:19.768Z,95489.53
2019-01-10T08:48:48.831Z,95484.77
2019-01-10T08:51:17.979Z,95486.20
2019-01-10T08:53:53.806Z,95487.78
2019-01-10T08:56:16.110Z,95491.53
2019-01-10T08:58:45.178Z,95489.54
2019-01-10T09:01:14.219Z,95491.84
2019-01-10T09:03:43.268Z,95494.66
2019-01-10T09:06:12.302Z,95494.26
2019-01-10T09:08:41.355Z,95499.66
2019-01-10T09:11:10.423Z,95498.63
2019-01-10T09:13:39.475Z,95498.90
2019-01-10T09:16:13.016Z,95504.86
2019-01-10T09:18:46.832Z,95506.48
2019-01-10T09:21:15.883Z,95506.65
2019-01-10T09:23:44.943Z,95513.06
2019-01-10T09:26:14.003Z,95514.10
2019-01-10T09:28:43.055Z,95523.31
2019-01-10T09:31:12.111Z,95516.01
2019-01-10T09:33:41.157Z,95520.16
2019-01-10T09:36:10.205Z,95520.28
2019-01-10T09:38:39.266Z,95527.74
2019-01-10T09:41:10.010Z,95528.38
2019-01-10T09:43:39.501Z,95525.48
2019-01-10T09:46:08.546Z,95529.08
2019-01-10T09:48:37.700Z,95529.84
2019-01-10T09:53:42.479Z,95530.92
2019-01-10T09:56:11.533Z,95535.58
2019-01-10T09:58:40.587Z,95534.52
2019-01-10T10:01:09.627Z,95539.04
2019-01-10T10:06:15.345Z,95539.37
2019-01-10T10:11:20.079Z,95537.38
2019-01-10T10:13:49.158Z,95541.34
2019-01-10T10:16:18.242Z,95542.94
2019-01-10T10:18:47.284Z,95539.70
2019-01-10T10:21:16.323Z,95541.25
2019-01-10T10:23:54.708Z,95542.57
2019-01-10T10:26:23.866Z,95542.13
2019-01-10T10:28:52.912Z,95548.03
2019-01-10T10:31:21.974Z,95545.75
2019-01-10T10:33:51.034Z,95552.38
2019-01-10T10:36:20.105Z,95545.88
2019-01-10T10:38:49.143Z,95557.52
2019-01-10T10:41:18.210Z,95561.31
2019-01-10T10:43:47.225Z,95558.46
2019-01-10T10:46:16.259Z,95562.68
2019-01-10T10:48:45.305Z,95560.84
2019-01-10T10:51:14.346Z,95556.55
2019-01-10T10:56:19.139Z,95568.62
2019-01-10T10:58:48.176Z,95571.39
2019-01-10T11:01:17.195Z,95571.20
2019-01-10T11:03:46.260Z,95572.64
2019-01-10T11:08:50.983Z,95569.88
2019-01-10T11:11:22.414Z,95571.95
2019-01-10T11:13:51.454Z,95572.45
2019-01-10T11:16:20.503Z,95573.77
2019-01-10T11:18:49.540Z,95571.95
2019-01-10T11:21:20.611Z,95570.38
2019-01-10T11:23:47.721Z,95568.92
2019-01-10T11:26:16.773Z,95571.31
2019-01-10T11:28:45.813Z,95569.83
2019-01-10T11:31:14.848Z,95569.22
2019-01-10T11:33:43.905Z,95568.80
2019-01-10T11:36:12.948Z,95570.07
2019-01-10T11:38:41.993Z,95568.30
2019-01-10T11:41:11.024Z,95569.77
2019-01-10T11:43:40.055Z,95572.32
2019-01-10T11:46:09.104Z,95573.30
2019-01-10T11:48:38.152Z,95570.88
2019-01-10T11:51:07.200Z,95571.03
2019-01-10T11:53:36.299Z,95574.03
2019-01-10T11:56:05.348Z,95564.12
2019-01-10T12:01:11.513Z,95576.42
2019-01-10T12:03:40.500Z,95571.00
2019-01-10T12:06:09.524Z,95578.12
2019-01-10T12:08:38.584Z,95572.63
2019-01-10T12:11:07.603Z,95572.84
2019-01-10T12:13:36.659Z,95574.81
2019-01-10T12:16:05.701Z,95573.83
2019-01-10T12:18:34.764Z,95574.13
2019-01-10T12:21:03.799Z,95579.02
2019-01-10T12:23:32.871Z,95578.10
2019-01-10T12:26:01.897Z,95580.37
2019-01-10T12:28:30.946Z,95579.11
2019-01-10T12:30:59.977Z,95578.42
2019-01-10T12:33:29.040Z,95587.64
2019-01-10T12:35:58.105Z,95585.97
2019-01-10T12:38:27.168Z,95586.31
2019-01-10T12:40:56.215Z,95584.66
2019-01-10T12:43:25.297Z,95582.35
2019-01-10T12:45:54.359Z,95590.38
2019-01-10T12:48:23.391Z,95583.67
2019-01-10T12:53:28.114Z,95589.02
2019-01-10T12:55:57.287Z,95586.69
2019-01-10T12:58:26.296Z,95588.14
2019-01-10T13:00:55.326Z,95592.04
2019-01-10T13:03:24.385Z,95593.02
2019-01-10T13:08:29.191Z,95598.39
2019-01-10T13:10:58.238Z,95598.38
2019-01-10T13:13:27.327Z,95599.38
2019-01-10T13:15:56.347Z,95599.27
2019-01-10T13:18:29.975Z,95599.33
2019-01-10T13:23:34.822Z,95599.41
2019-01-10T13:26:06.567Z,95605.56
2019-01-10T13:28:35.582Z,95608.73
2019-01-10T13:31:04.624Z,95611.54
2019-01-10T13:33:33.675Z,95612.97
2019-01-10T13:36:02.738Z,95616.62
2019-01-10T13:38:31.770Z,95616.22
2019-01-10T13:41:00.871Z,95613.70
2019-01-10T13:43:29.937Z,95612.98
2019-01-10T13:45:58.975Z,95620.05
2019-01-10T13:48:28.003Z,95626.16
2019-01-10T13:50:58.061Z,95624.11
2019-01-10T13:53:28.067Z,95620.75
2019-01-10T13:55:57.124Z,95624.45
2019-01-10T13:58:26.175Z,95624.92
2019-01-10T14:00:55.234Z,95627.30
2019-01-10T14:03:24.284Z,95631.77
2019-01-10T14:05:53.360Z,95633.15
2019-01-10T14:08:22.399Z,95635.02
2019-01-10T14:10:51.508Z,95635.30
2019-01-10T14:13:20.531Z,95631.42
2019-01-10T14:15:49.598Z,95637.14
2019-01-10T14:18:18.649Z,95644.42
2019-01-10T14:20:47.695Z,95652.03
2019-01-10T14:23:16.757Z,95656.23
2019-01-10T14:25:52.750Z,95653.55
2019-01-10T14:28:21.840Z,95655.34
2019-01-10T14:30:50.894Z,95654.42
2019-01-10T14:33:19.938Z,95657.91
2019-01-10T14:35:48.994Z,95655.78
2019-01-10T14:38:18.981Z,95657.73
2019-01-10T14:43:23.823Z,95667.48
2019-01-10T14:48:28.558Z,95676.05
2019-01-10T14:53:33.361Z,95679.63
2019-01-10T14:56:02.403Z,95686.02
2019-01-10T14:58:31.447Z,95687.27
2019-01-10T15:01:00.500Z,95698.31
2019-01-10T15:03:29.554Z,95697.16
2019-01-10T15:05:58.599Z,95704.69
2019-01-10T15:08:27.643Z,95705.33
2019-01-10T15:10:56.695Z,95704.44
2019-01-10T15:13:25.882Z,95705.56
2019-01-10T15:18:30.663Z,95713.08
2019-01-10T15:20:59.731Z,95713.68
2019-01-10T15:23:28.782Z,95719.09
2019-01-10T15:25:57.898Z,95722.14
2019-01-10T15:28:26.939Z,95723.13
2019-01-10T15:30:57.157Z,95731.64
2019-01-10T15:33:25.020Z,95727.90
2019-01-10T15:38:29.812Z,95728.63
2019-01-10T15:40:58.843Z,95731.09
2019-01-10T15:43:29.831Z,95734.25
2019-01-10T15:45:58.873Z,95739.20
2019-01-10T15:48:27.918Z,95742.03
2019-01-10T15:50:56.982Z,95743.98
2019-01-10T15:53:26.032Z,95745.85
2019-01-10T15:55:55.083Z,95744.39
2019-01-10T15:58:35.855Z,95741.59
2019-01-10T16:03:40.747Z,95749.92
2019-01-10T16:06:09.798Z,95746.61
2019-01-10T16:08:38.855Z,95746.38
2019-01-10T16:11:07.930Z,95752.54
2019-01-10T16:13:36.995Z,95752.20
2019-01-10T16:16:06.048Z,95760.36
2019-01-10T16:18:35.135Z,95759.30
2019-01-10T16:21:04.233Z,95766.03
2019-01-10T16:23:33.284Z,95776.75
2019-01-10T16:26:02.328Z,95768.47
2019-01-10T16:28:31.382Z,95773.36
2019-01-10T16:31:00.682Z,95775.12
2019-01-10T16:33:29.748Z,95776.39
2019-01-10T16:35:59.220Z,95779.39
2019-01-10T16:38:27.995Z,95784.05
2019-01-10T16:40:57.027Z,95785.27
2019-01-10T16:43:26.079Z,95792.03
2019-01-10T16:45:55.186Z,95790.55
2019-01-10T16:48:24.239Z,95792.64
2019-01-10T16:50:53.314Z,95791.86
2019-01-10T16:53:22.347Z,95797.66
2019-01-10T16:55:51.427Z,95798.04
2019-01-10T16:58:20.497Z,95801.52
2019-01-10T17:00:49.593Z,95802.83
2019-01-10T17:03:18.907Z,95800.17
2019-01-10T17:05:51.627Z,95804.90
2019-01-10T17:10:56.509Z,95811.56
2019-01-10T17:13:25.572Z,95814.13
2019-01-10T17:15:54.619Z,95817.64
2019-01-10T17:18:23.726Z,95817.23
2019-01-10T17:20:52.795Z,95824.50
2019-01-10T17:23:21.974Z,95829.18
2019-01-10T17:25:51.250Z,95828.91
2019-01-10T17:30:56.037Z,95837.48
2019-01-10T17:33:26.755Z,95838.15
2019-01-10T17:35:55.819Z,95841.34
2019-01-10T17:38:24.872Z,95845.06
2019-01-10T17:40:54.080Z,95847.41
2019-01-10T17:43:23.195Z,95848.71
2019-01-10T17:45:52.252Z,95851.38
2019-01-10T17:48:21.322Z,95849.95
2019-01-10T17:50:50.364Z,95851.70
2019-01-10T17:55:55.102Z,95865.89
2019-01-10T17:58:24.163Z,95863.55
2019-01-10T18:00:53.224Z,95869.87
2019-01-10T18:03:22.298Z,95865.64
2019-01-10T18:05:51.355Z,95866.69
2019-01-10T18:08:20.396Z,95867.27
2019-01-10T18:10:49.439Z,95872.86
2019-01-10T18:13:18.528Z,95872.74
2019-01-10T18:15:47.672Z,95875.20
2019-01-10T18:18:16.732Z,95880.05
2019-01-10T18:20:45.867Z,95880.67
2019-01-10T18:23:14.936Z,95880.27
2019-01-10T18:25:44.004Z,95878.34
2019-01-10T18:28:13.769Z,95882.36
2019-01-10T18:30:43.427Z,95881.84
2019-01-10T18:33:11.164Z,95885.05
2019-01-10T18:35:40.276Z,95886.84
2019-01-10T18:38:10.036Z,95892.91
2019-01-10T18:40:39.107Z,95892.89
2019-01-10T18:43:08.159Z,95898.38
2019-01-10T18:45:37.212Z,95895.95
2019-01-10T18:48:06.259Z,95900.42
2019-01-10T18:50:35.321Z,95901.92
2019-01-10T18:53:04.427Z,95903.77
2019-01-10T18:55:34.418Z,95902.93
2019-01-10T18:58:03.478Z,95902.96
2019-01-10T19:00:32.530Z,95897.15
2019-01-10T19:03:01.602Z,95898.97
2019-01-10T19:08:15.315Z,95907.09
2019-01-10T19:10:44.372Z,95904.73
2019-01-10T19:13:13.431Z,95910.65
2019-01-10T19:15:43.483Z,95909.78
2019-01-10T19:18:12.589Z,95920.97
2019-01-10T19:20:41.634Z,95917.99
2019-01-10T19:23:10.695Z,95920.06
2019-01-10T19:25:45.277Z,95921.16
2019-01-10T19:28:14.331Z,95923.84
2019-01-10T19:30:43.374Z,95930.11
2019-01-10T19:35:49.128Z,95931.28
2019-01-10T19:38:18.220Z,95932.19
2019-01-10T19:40:47.317Z,95934.73
2019-01-10T19:43:16.370Z,95939.97
2019-01-10T19:45:45.439Z,95946.05
2019-01-10T19:48:14.490Z,95944.27
2019-01-10T19:50:43.542Z,95946.83
2019-01-10T19:53:12.671Z,95948.84
2019-01-10T19:55:42.702Z,95951.14
2019-01-10T20:00:48.676Z,95953.11
2019-01-10T20:03:17.755Z,95958.47
2019-01-10T20:05:46.795Z,95960.44
2019-01-10T20:08:15.928Z,95952.44
2019-01-10T20:10:45.008Z,95952.58
2019-01-10T20:13:14.951Z,95954.94
2019-01-10T20:15:44.016Z,95954.70
2019-01-10T20:18:16.436Z,95952.66
2019-01-10T20:20:43.126Z,95960.23
2019-01-10T20:23:12.200Z,95966.11
2019-01-10T20:28:17.507Z,95966.03
2019-01-10T20:30:47.487Z,95967.05
2019-01-10T20:33:16.557Z,95963.52
2019-01-10T20:35:46.649Z,95970.39
2019-01-10T20:38:15.710Z,95964.65
2019-01-10T20:40:44.836Z,95968.89
2019-01-10T20:43:13.906Z,95968.81
2019-01-10T20:45:42.996Z,95971.30
2019-01-10T20:48:12.108Z,95971.20
2019-01-10T20:50:41.178Z,95974.38
2019-01-10T20:53:10.243Z,95979.66
2019-01-10T20:55:39.328Z,95980.57
2019-01-10T20:58:08.422Z,95978.23
2019-01-10T21:00:37.469Z,95980.89
2019-01-10T21:03:06.567Z,95984.59
2019-01-10T21:05:35.639Z,95981.78
2019-01-10T21:08:06.099Z,95979.91
2019-01-10T21:10:35.196Z,95984.06
2019-01-10T21:13:04.282Z,95987.52
2019-01-10T21:15:33.319Z,95992.96
2019-01-10T21:18:03.059Z,95996.20
2019-01-10T21:20:37.212Z,95995.42
2019-01-10T21:23:06.410Z,95996.31
2019-01-10T21:25:35.461Z,96002.45
2019-01-10T21:28:04.517Z,96001.14
2019-01-10T21:30:33.563Z,96001.09
2019-01-10T21:33:02.954Z,96007.16
2019-01-10T21:35:31.992Z,96006.05
2019-01-10T21:38:01.023Z,96000.97
2019-01-10T21:40:30.075Z,95999.13
2019-01-10T21:42:59.187Z,96001.09
2019-01-10T21:45:29.171Z,96001.99
2019-01-10T21:47:58.231Z,96001.48
2019-01-10T21:53:04.473Z,96003.14
2019-01-10T21:55:33.591Z,96006.70
2019-01-10T21:58:04.017Z,96010.09
2019-01-10T22:00:33.388Z,96012.02
2019-01-10T22:03:14.108Z,96011.23
2019-01-10T22:05:44.208Z,96013.41
2019-01-10T22:08:13.277Z,96025.58
2019-01-10T22:10:42.371Z,96023.92
2019-01-10T22:13:11.432Z,96021.86
2019-01-10T22:15:41.403Z,96023.12
2019-01-10T22:18:10.466Z,96024.78
2019-01-10T22:20:39.534Z,96024.65
2019-01-10T22:23:09.518Z,96025.14
2019-01-10T22:25:39.063Z,96021.46
2019-01-10T22:33:15.683Z,96023.66
2019-01-10T22:35:44.766Z,96024.36
2019-01-10T22:38:13.834Z,96025.55
2019-01-10T22:40:42.929Z,96024.95
2019-01-10T22:43:12.054Z,96027.09
2019-01-10T22:45:43.113Z,96031.85
2019-01-10T22:48:12.191Z,96033.17
2019-01-10T22:50:41.234Z,96026.68
2019-01-10T22:53:11.224Z,96025.69
2019-01-10T22:55:40.309Z,96024.30
2019-01-10T22:58:10.393Z,96020.88
2019-01-10T23:00:45.057Z,96026.91
2019-01-10T23:03:14.089Z,96019.50
2019-01-10T23:05:43.245Z,96022.59
2019-01-10T23:08:12.733Z,96023.52
2019-01-10T23:10:41.851Z,96023.70
2019-01-10T23:13:11.911Z,96021.96
2019-01-10T23:15:41.034Z,96019.26
2019-01-10T23:18:10.084Z,96019.86
2019-01-10T23:20:39.159Z,96019.05
2019-01-10T23:23:10.444Z,96025.95
2019-01-10T23:25:39.520Z,96021.69
2019-01-10T23:28:08.589Z,96013.39
2019-01-10T23:30:44.539Z,96020.72
2019-01-10T23:33:13.671Z,96016.48
2019-01-10T23:35:46.452Z,96022.56
2019-01-10T23:38:24.615Z,96022.06
2019-01-10T23:40:53.818Z,96019.14
2019-01-10T23:43:24.834Z,96028.08
2019-01-10T23:45:54.274Z,96028.14
2019-01-10T23:48:23.402Z,96030.10
2019-01-10T23:50:52.618Z,96023.37
2019-01-10T23:53:21.691Z,96035.91
2019-01-10T23:55:50.749Z,96030.83
2019-01-10T23:58:20.798Z,96030.98
